createdAt,value
2022-09-10T00:02:10.704Z,15.94
2022-09-10T00:04:37.743Z,15.86
2022-09-10T00:07:06.898Z,15.97
2022-09-10T00:09:34.036Z,15.89
2022-09-10T00:12:01.167Z,15.87
2022-09-10T00:14:28.134Z,15.84
2022-09-10T00:16:55.135Z,15.85
2022-09-10T00:19:22.223Z,15.87
2022-09-10T00:21:50.705Z,15.76
2022-09-10T00:24:17.703Z,16.04
2022-09-10T00:26:45.653Z,15.83
2022-09-10T00:29:17.954Z,15.84
2022-09-10T00:31:45.345Z,15.85
2022-09-10T00:34:14.286Z,15.83
2022-09-10T00:36:43.956Z,15.76
2022-09-10T00:39:18.111Z,16.14
2022-09-10T00:41:47.294Z,16.06
2022-09-10T00:44:42.136Z,15.93
2022-09-10T00:47:51.147Z,15.92
2022-09-10T00:50:26.111Z,15.88
2022-09-10T00:52:58.253Z,15.98
2022-09-10T00:55:25.477Z,16.01
2022-09-10T00:57:57.047Z,15.91
2022-09-10T01:00:24.202Z,15.93
2022-09-10T01:02:52.034Z,15.95
2022-09-10T01:05:20.032Z,15.98
2022-09-10T01:07:48.146Z,15.95
2022-09-10T01:10:21.935Z,15.85
2022-09-10T01:13:11.889Z,15.89
2022-09-10T01:16:10.730Z,15.92
2022-09-10T01:19:07.519Z,15.94
2022-09-10T01:22:15.502Z,15.91
2022-09-10T01:25:23.717Z,15.88
2022-09-10T01:27:54.668Z,15.96
2022-09-10T01:30:34.155Z,15.97
2022-09-10T01:33:27.234Z,15.77
2022-09-10T01:36:00.233Z,15.92
2022-09-10T01:38:31.962Z,15.99
2022-09-10T01:40:59.617Z,15.73
2022-09-10T01:43:26.801Z,15.73
2022-09-10T01:46:45.382Z,15.86
2022-09-10T01:49:36.797Z,16.07
2022-09-10T01:52:28.595Z,16.07
2022-09-10T01:55:23.842Z,16.04
2022-09-10T01:58:24.627Z,16.23
2022-09-10T02:01:21.925Z,15.99
2022-09-10T02:03:56.872Z,15.98
2022-09-10T02:06:29.573Z,16.17
2022-09-10T02:08:58.476Z,16.10
2022-09-10T02:11:25.463Z,16.02
2022-09-10T02:13:53.447Z,16.16
2022-09-10T02:16:40.368Z,16.00
2022-09-10T02:19:08.155Z,16.04
2022-09-10T02:21:36.278Z,16.04
2022-09-10T02:24:07.992Z,15.95
2022-09-10T02:26:39.660Z,16.01
2022-09-10T02:29:08.539Z,16.10
2022-09-10T02:31:35.840Z,15.98
2022-09-10T02:34:05.400Z,15.98
2022-09-10T02:36:32.911Z,16.06
2022-09-10T02:39:03.031Z,16.04
2022-09-10T02:41:32.561Z,15.86
2022-09-10T02:44:03.700Z,16.05
2022-09-10T02:46:31.049Z,15.89
2022-09-10T02:48:58.475Z,15.83
2022-09-10T02:51:26.061Z,15.85
2022-09-10T02:53:53.124Z,15.95
2022-09-10T02:56:20.211Z,15.89
2022-09-10T02:58:47.208Z,15.87
2022-09-10T03:01:19.115Z,15.72
2022-09-10T03:03:55.088Z,15.86
2022-09-10T03:06:24.629Z,15.71
2022-09-10T03:08:55.291Z,15.79
2022-09-10T03:11:27.236Z,15.81
2022-09-10T03:13:54.790Z,15.98
2022-09-10T03:16:21.866Z,15.99
2022-09-10T03:18:48.844Z,16.02
2022-09-10T03:21:22.067Z,15.92
2022-09-10T03:23:51.340Z,15.92
2022-09-10T03:26:20.560Z,15.95
2022-09-10T03:28:48.559Z,16.14
2022-09-10T03:31:16.191Z,15.85
2022-09-10T03:33:43.139Z,15.67
2022-09-10T03:36:13.242Z,15.80
2022-09-10T03:38:41.232Z,16.00
2022-09-10T03:41:08.373Z,16.02
2022-09-10T03:43:35.446Z,16.01
2022-09-10T03:46:02.654Z,15.98
2022-09-10T03:48:29.977Z,16.01
2022-09-10T03:50:57.318Z,15.98
2022-09-10T03:53:24.367Z,15.98
2022-09-10T03:55:52.099Z,16.11
2022-09-10T03:58:19.477Z,16.07
2022-09-10T04:00:46.644Z,15.92
2022-09-10T04:03:16.667Z,16.13
2022-09-10T04:05:44.171Z,16.11
2022-09-10T04:08:13.634Z,16.08
2022-09-10T04:10:42.217Z,16.07
2022-09-10T04:13:10.096Z,15.97
2022-09-10T04:15:40.052Z,16.01
2022-09-10T04:18:08.400Z,16.09
2022-09-10T04:20:35.322Z,16.00
2022-09-10T04:23:03.030Z,16.15
2022-09-10T04:25:30.041Z,16.03
2022-09-10T04:27:57.152Z,16.04
2022-09-10T04:30:26.059Z,16.15
2022-09-10T04:32:52.994Z,16.27
2022-09-10T04:35:20.384Z,15.97
2022-09-10T04:37:47.353Z,16.04
2022-09-10T04:40:14.365Z,16.10
2022-09-10T04:42:41.380Z,16.16
2022-09-10T04:45:09.610Z,16.16
2022-09-10T04:47:36.584Z,16.06
2022-09-10T04:50:04.110Z,16.14
2022-09-10T04:52:31.055Z,16.04
2022-09-10T04:54:58.312Z,16.18
2022-09-10T04:57:26.199Z,16.06
2022-09-10T04:59:54.001Z,16.15
2022-09-10T05:02:21.198Z,16.11
2022-09-10T05:04:48.152Z,16.08
2022-09-10T05:07:15.041Z,16.15
2022-09-10T05:09:42.061Z,16.17
2022-09-10T05:12:08.961Z,16.15
2022-09-10T05:14:35.979Z,16.16
2022-09-10T05:17:03.277Z,16.02
2022-09-10T05:19:30.231Z,16.12
2022-09-10T05:21:57.166Z,16.17
2022-09-10T05:24:24.111Z,16.12
2022-09-10T05:26:52.064Z,16.28
2022-09-10T05:29:22.044Z,16.13
2022-09-10T05:31:49.035Z,16.14
2022-09-10T05:34:15.946Z,16.27
2022-09-10T05:36:42.880Z,16.30
2022-09-10T05:39:09.865Z,16.20
2022-09-10T05:41:37.994Z,16.32
2022-09-10T05:44:05.367Z,16.41
2022-09-10T05:46:32.993Z,16.32
2022-09-10T05:48:59.988Z,16.41
2022-09-10T05:51:29.832Z,16.39
2022-09-10T05:53:57.699Z,16.33
2022-09-10T05:56:26.231Z,16.34
2022-09-10T05:58:54.192Z,16.37
2022-09-10T06:01:21.261Z,16.34
2022-09-10T06:03:48.690Z,16.39
2022-09-10T06:06:15.820Z,16.37
2022-09-10T06:08:43.234Z,16.24
2022-09-10T06:11:11.840Z,16.23
2022-09-10T06:13:42.146Z,16.35
2022-09-10T06:16:09.486Z,16.43
2022-09-10T06:18:37.054Z,16.55
2022-09-10T06:21:15.674Z,16.47
2022-09-10T06:23:44.165Z,16.41
2022-09-10T06:26:18.476Z,16.46
2022-09-10T06:28:46.523Z,16.59
2022-09-10T06:31:20.083Z,16.52
2022-09-10T06:33:49.020Z,16.54
2022-09-10T06:36:16.241Z,16.40
2022-09-10T06:38:56.613Z,16.43
2022-09-10T06:41:24.518Z,16.43
2022-09-10T06:43:51.458Z,16.47
2022-09-10T06:46:54.930Z,16.48
2022-09-10T06:49:07.179Z,16.54
2022-09-10T06:51:34.126Z,16.58
2022-09-10T06:54:02.900Z,16.57
2022-09-10T06:56:30.339Z,16.51
2022-09-10T06:59:01.948Z,16.53
2022-09-10T07:01:29.839Z,16.49
2022-09-10T07:03:59.522Z,16.71
2022-09-10T07:06:30.363Z,16.91
2022-09-10T07:08:58.335Z,16.99
2022-09-10T07:11:28.645Z,17.08
2022-09-10T07:13:55.655Z,17.11
2022-09-10T07:16:26.136Z,17.24
2022-09-10T07:18:56.839Z,17.38
2022-09-10T07:21:27.334Z,17.32
2022-09-10T07:24:01.103Z,17.28
2022-09-10T07:26:28.871Z,17.34
2022-09-10T07:28:57.053Z,17.28
2022-09-10T07:31:29.829Z,17.57
2022-09-10T07:33:58.108Z,17.49
2022-09-10T07:36:25.710Z,17.63
2022-09-10T07:38:54.828Z,17.46
2022-09-10T07:41:21.800Z,17.45
2022-09-10T07:43:52.853Z,17.44
2022-09-10T07:46:22.062Z,17.33
2022-09-10T07:48:53.483Z,17.35
2022-09-10T07:51:20.506Z,17.25
2022-09-10T07:53:50.830Z,17.38
2022-09-10T07:56:17.852Z,17.61
2022-09-10T07:58:44.845Z,17.73
2022-09-10T08:01:12.605Z,17.83
2022-09-10T08:03:40.766Z,17.91
2022-09-10T08:06:09.325Z,17.87
2022-09-10T08:08:38.987Z,17.79
2022-09-10T08:11:16.630Z,17.66
2022-09-10T08:13:50.262Z,17.63
2022-09-10T08:16:20.797Z,17.67
2022-09-10T08:18:48.649Z,17.79
2022-09-10T08:21:17.552Z,17.79
2022-09-10T08:23:50.788Z,17.80
2022-09-10T08:26:18.515Z,17.83
2022-09-10T08:28:45.569Z,18.04
2022-09-10T08:31:14.524Z,18.04
2022-09-10T08:33:41.593Z,18.27
2022-09-10T08:36:12.119Z,18.29
2022-09-10T08:38:41.001Z,18.66
2022-09-10T08:41:21.885Z,18.61
2022-09-10T08:44:03.590Z,18.52
2022-09-10T08:46:37.297Z,18.58
2022-09-10T08:49:41.745Z,18.36
2022-09-10T08:52:38.359Z,18.39
2022-09-10T08:55:17.504Z,18.47
2022-09-10T08:57:53.720Z,18.58
2022-09-10T09:00:25.309Z,18.44
2022-09-10T09:03:02.902Z,18.35
2022-09-10T09:05:55.575Z,18.27
2022-09-10T09:08:51.060Z,18.30
2022-09-10T09:11:51.398Z,18.42
2022-09-10T09:14:50.235Z,18.28
2022-09-10T09:17:58.690Z,18.59
2022-09-10T09:20:49.188Z,19.08
2022-09-10T09:23:48.062Z,19.43
2022-09-10T09:26:35.703Z,19.82
2022-09-10T09:29:19.770Z,19.50
2022-09-10T09:31:53.197Z,19.63
2022-09-10T09:34:28.624Z,19.85
2022-09-10T09:36:57.723Z,19.86
2022-09-10T09:39:43.458Z,19.60
2022-09-10T09:43:05.359Z,19.70
2022-09-10T09:45:47.703Z,19.30
2022-09-10T09:48:18.499Z,19.38
2022-09-10T09:50:53.430Z,19.46
2022-09-10T09:53:27.271Z,19.69
2022-09-10T09:56:35.910Z,19.39
2022-09-10T09:59:24.455Z,19.60
2022-09-10T10:01:51.837Z,19.38
2022-09-10T10:04:30.907Z,19.23
2022-09-10T10:07:00.876Z,19.22
2022-09-10T10:09:45.017Z,18.96
2022-09-10T10:12:31.753Z,18.69
2022-09-10T10:15:00.242Z,19.03
2022-09-10T10:17:40.834Z,19.18
2022-09-10T10:20:13.707Z,19.18
2022-09-10T10:22:43.326Z,19.67
2022-09-10T10:25:41.192Z,19.90
2022-09-10T10:28:27.514Z,20.11
2022-09-10T10:30:59.305Z,20.17
2022-09-10T10:33:30.836Z,20.24
2022-09-10T10:36:38.288Z,20.00
2022-09-10T10:39:21.794Z,19.45
2022-09-10T10:42:05.022Z,19.30
2022-09-10T10:44:44.966Z,19.36
2022-09-10T10:47:58.009Z,19.30
2022-09-10T10:50:39.863Z,19.23
2022-09-10T10:53:39.597Z,19.48
2022-09-10T10:56:26.042Z,19.86
2022-09-10T10:59:09.522Z,20.32
2022-09-10T11:01:44.212Z,20.24
2022-09-10T11:04:47.487Z,20.02
2022-09-10T11:07:39.417Z,20.11
2022-09-10T11:10:43.350Z,20.14
2022-09-10T11:13:41.028Z,20.26
2022-09-10T11:16:24.012Z,20.51
2022-09-10T11:18:54.481Z,20.42
2022-09-10T11:21:31.975Z,20.48
2022-09-10T11:24:06.382Z,20.59
2022-09-10T11:27:02.959Z,20.43
2022-09-10T11:29:49.946Z,20.29
2022-09-10T11:33:00.404Z,20.33
2022-09-10T11:35:44.084Z,20.44
2022-09-10T11:38:51.471Z,20.55
2022-09-10T11:41:29.214Z,20.59
2022-09-10T11:44:53.731Z,20.16
2022-09-10T11:47:37.095Z,20.57
2022-09-10T11:50:13.651Z,20.32
2022-09-10T11:52:40.547Z,20.35
2022-09-10T11:55:14.619Z,20.19
2022-09-10T11:57:59.872Z,20.43
2022-09-10T12:00:30.079Z,20.44
2022-09-10T12:03:51.461Z,19.96
2022-09-10T12:06:39.507Z,20.04
2022-09-10T12:09:25.907Z,20.06
2022-09-10T12:12:21.423Z,20.02
2022-09-10T12:14:48.408Z,20.04
2022-09-10T12:17:30.926Z,19.87
2022-09-10T12:20:01.163Z,19.64
2022-09-10T12:22:39.013Z,19.44
2022-09-10T12:25:24.097Z,19.42
2022-09-10T12:27:59.027Z,19.43
2022-09-10T12:30:33.252Z,19.40
2022-09-10T12:33:27.807Z,19.86
2022-09-10T12:35:54.698Z,20.37
2022-09-10T12:38:49.872Z,20.43
2022-09-10T12:41:27.142Z,20.77
2022-09-10T12:43:57.471Z,20.68
2022-09-10T12:46:25.933Z,20.74
2022-09-10T12:49:06.694Z,20.42
2022-09-10T12:51:57.496Z,20.19
2022-09-10T12:54:47.028Z,19.84
2022-09-10T12:57:50.781Z,19.90
2022-09-10T13:00:24.468Z,19.33
2022-09-10T13:02:58.204Z,18.63
2022-09-10T13:05:56.747Z,17.69
2022-09-10T13:08:33.196Z,17.54
2022-09-10T13:11:01.216Z,17.83
2022-09-10T13:14:02.486Z,18.67
2022-09-10T13:16:29.700Z,18.76
2022-09-10T13:19:14.512Z,19.04
2022-09-10T13:21:41.383Z,19.16
2022-09-10T13:24:34.621Z,19.14
2022-09-10T13:27:34.069Z,18.91
2022-09-10T13:30:24.278Z,18.83
2022-09-10T13:33:00.880Z,19.07
2022-09-10T13:35:55.785Z,19.48
2022-09-10T13:38:49.191Z,19.70
2022-09-10T13:41:56.127Z,19.77
2022-09-10T13:44:51.986Z,19.80
2022-09-10T13:47:33.784Z,19.62
2022-09-10T13:50:15.915Z,19.41
2022-09-10T13:52:47.106Z,19.33
2022-09-10T13:55:22.468Z,19.48
2022-09-10T13:57:52.246Z,19.71
2022-09-10T14:00:24.075Z,19.70
2022-09-10T14:02:57.161Z,19.66
2022-09-10T14:05:34.070Z,19.58
2022-09-10T14:08:13.023Z,19.73
2022-09-10T14:11:05.306Z,20.24
2022-09-10T14:13:44.689Z,20.29
2022-09-10T14:16:18.536Z,20.52
2022-09-10T14:18:55.412Z,20.72
2022-09-10T14:21:28.544Z,20.91
2022-09-10T14:23:59.700Z,20.88
2022-09-10T14:26:33.705Z,20.22
2022-09-10T14:29:24.985Z,19.74
2022-09-10T14:31:52.051Z,19.54
2022-09-10T14:34:36.138Z,19.52
2022-09-10T14:37:32.304Z,19.59
2022-09-10T14:40:20.030Z,19.30
2022-09-10T14:42:49.371Z,19.41
2022-09-10T14:45:38.151Z,19.20
2022-09-10T14:48:06.479Z,19.22
2022-09-10T14:50:34.847Z,19.13
2022-09-10T14:53:01.803Z,19.10
2022-09-10T14:55:32.319Z,18.95
2022-09-10T14:57:59.524Z,18.87
2022-09-10T15:00:34.719Z,19.03
2022-09-10T15:03:02.639Z,19.21
2022-09-10T15:05:29.847Z,19.52
2022-09-10T15:07:56.698Z,19.36
2022-09-10T15:10:23.823Z,19.49
2022-09-10T15:12:53.118Z,19.54
2022-09-10T15:15:20.065Z,19.89
2022-09-10T15:17:47.207Z,20.16
2022-09-10T15:20:16.930Z,19.94
2022-09-10T15:22:44.841Z,19.91
2022-09-10T15:25:33.839Z,20.14
2022-09-10T15:28:02.189Z,19.95
2022-09-10T15:30:29.496Z,19.93
2022-09-10T15:32:56.520Z,19.99
2022-09-10T15:35:25.118Z,20.08
2022-09-10T15:37:52.112Z,19.84
2022-09-10T15:40:19.047Z,19.68
2022-09-10T15:42:46.087Z,19.77
2022-09-10T15:45:12.963Z,19.73
2022-09-10T15:47:40.354Z,19.68
2022-09-10T15:50:12.631Z,19.73
2022-09-10T15:52:39.547Z,19.70
2022-09-10T15:55:07.171Z,19.59
2022-09-10T15:57:35.889Z,19.43
2022-09-10T16:00:06.651Z,19.38
2022-09-10T16:02:34.403Z,19.40
2022-09-10T16:05:01.292Z,19.48
2022-09-10T16:07:29.511Z,19.38
2022-09-10T16:09:58.803Z,19.46
2022-09-10T16:12:27.304Z,19.44
2022-09-10T16:14:54.647Z,19.37
2022-09-10T16:17:21.595Z,19.45
2022-09-10T16:19:49.611Z,19.46
2022-09-10T16:22:20.408Z,19.40
2022-09-10T16:24:47.723Z,19.52
2022-09-10T16:27:17.348Z,19.26
2022-09-10T16:29:44.307Z,19.15
2022-09-10T16:32:11.362Z,19.08
2022-09-10T16:34:38.839Z,19.07
2022-09-10T16:37:06.985Z,19.13
2022-09-10T16:39:33.975Z,19.11
2022-09-10T16:42:01.022Z,19.15
2022-09-10T16:44:28.739Z,19.17
2022-09-10T16:46:57.721Z,19.32
2022-09-10T16:49:24.864Z,19.13
2022-09-10T16:51:51.783Z,19.14
2022-09-10T16:54:20.824Z,19.14
2022-09-10T16:56:48.847Z,19.08
2022-09-10T16:59:22.068Z,19.02
2022-09-10T17:01:51.394Z,18.97
2022-09-10T17:04:28.327Z,18.91
2022-09-10T17:06:57.715Z,18.99
2022-09-10T17:09:25.274Z,18.91
2022-09-10T17:11:52.489Z,19.00
2022-09-10T17:14:19.425Z,19.06
2022-09-10T17:16:48.010Z,19.07
2022-09-10T17:19:19.940Z,19.07
2022-09-10T17:21:51.171Z,19.12
2022-09-10T17:24:21.092Z,19.18
2022-09-10T17:26:48.171Z,19.10
2022-09-10T17:29:19.773Z,19.04
2022-09-10T17:31:47.635Z,18.91
2022-09-10T17:34:16.423Z,18.87
2022-09-10T17:36:46.243Z,18.88
2022-09-10T17:39:14.884Z,18.85
2022-09-10T17:41:43.018Z,18.77
2022-09-10T17:44:11.436Z,18.65
2022-09-10T17:46:39.307Z,18.68
2022-09-10T17:49:06.500Z,18.69
2022-09-10T17:51:35.223Z,18.51
2022-09-10T17:54:05.186Z,18.28
2022-09-10T17:56:32.210Z,18.37
2022-09-10T17:59:04.207Z,18.19
2022-09-10T18:01:38.626Z,18.48
2022-09-10T18:04:07.022Z,18.28
2022-09-10T18:06:37.163Z,18.35
2022-09-10T18:09:05.549Z,18.25
2022-09-10T18:11:36.770Z,18.19
2022-09-10T18:14:04.694Z,18.16
2022-09-10T18:16:33.843Z,18.06
2022-09-10T18:19:12.835Z,18.03
2022-09-10T18:21:41.433Z,18.03
2022-09-10T18:24:14.518Z,18.01
2022-09-10T18:26:44.364Z,18.03
2022-09-10T18:29:21.951Z,17.88
2022-09-10T18:31:56.259Z,17.88
2022-09-10T18:34:27.706Z,17.98
2022-09-10T18:37:00.679Z,17.98
2022-09-10T18:39:31.292Z,17.97
2022-09-10T18:42:01.140Z,17.99
2022-09-10T18:44:36.996Z,17.93
2022-09-10T18:47:17.769Z,17.96
2022-09-10T18:49:50.399Z,17.86
2022-09-10T18:52:17.566Z,17.90
2022-09-10T18:54:46.569Z,18.05
2022-09-10T18:57:14.036Z,17.92
2022-09-10T18:59:41.035Z,17.83
2022-09-10T19:02:08.051Z,17.79
2022-09-10T19:04:54.428Z,18.05
2022-09-10T19:07:23.396Z,17.91
2022-09-10T19:09:50.285Z,17.74
2022-09-10T19:12:19.225Z,17.85
2022-09-10T19:14:46.261Z,17.81
2022-09-10T19:17:13.316Z,17.69
2022-09-10T19:19:40.216Z,17.69
2022-09-10T19:22:07.307Z,17.56
2022-09-10T19:24:54.166Z,17.46
2022-09-10T19:27:22.199Z,17.63
2022-09-10T19:29:49.885Z,17.62
2022-09-10T19:32:17.407Z,17.83
2022-09-10T19:34:44.696Z,17.77
2022-09-10T19:37:11.714Z,17.87
2022-09-10T19:39:38.805Z,17.88
2022-09-10T19:42:06.816Z,17.96
2022-09-10T19:44:33.978Z,17.96
2022-09-10T19:47:01.155Z,17.91
2022-09-10T19:49:28.092Z,17.98
2022-09-10T19:51:55.092Z,17.79
2022-09-10T19:54:22.793Z,17.60
2022-09-10T19:56:49.831Z,17.89
2022-09-10T19:59:17.039Z,17.64
2022-09-10T20:01:46.060Z,17.71
2022-09-10T20:04:14.366Z,17.90
2022-09-10T20:06:46.006Z,17.99
2022-09-10T20:09:13.531Z,17.86
2022-09-10T20:11:41.059Z,17.95
2022-09-10T20:14:13.946Z,17.94
2022-09-10T20:16:44.069Z,17.69
2022-09-10T20:19:18.034Z,17.77
2022-09-10T20:21:46.472Z,17.77
2022-09-10T20:24:14.586Z,17.80
2022-09-10T20:26:43.678Z,17.72
2022-09-10T20:29:14.167Z,17.88
2022-09-10T20:31:43.253Z,17.88
2022-09-10T20:34:17.191Z,17.97
2022-09-10T20:36:44.350Z,17.79
2022-09-10T20:39:17.851Z,17.78
2022-09-10T20:41:45.788Z,17.74
2022-09-10T20:44:15.838Z,17.65
2022-09-10T20:46:44.145Z,17.53
2022-09-10T20:49:13.571Z,17.50
2022-09-10T20:51:41.129Z,17.67
2022-09-10T20:54:13.530Z,17.71
2022-09-10T20:56:42.146Z,17.75
2022-09-10T20:59:11.605Z,17.64
2022-09-10T21:01:39.237Z,17.60
2022-09-10T21:04:07.507Z,17.52
2022-09-10T21:06:35.215Z,17.45
2022-09-10T21:09:02.826Z,17.40
2022-09-10T21:11:35.171Z,17.25
2022-09-10T21:14:05.849Z,17.50
2022-09-10T21:16:35.229Z,17.37
2022-09-10T21:19:05.765Z,17.47
2022-09-10T21:21:34.678Z,17.51
2022-09-10T21:24:05.846Z,17.25
2022-09-10T21:26:35.870Z,17.34
2022-09-10T21:29:07.209Z,17.33
2022-09-10T21:31:35.577Z,17.38
2022-09-10T21:34:03.716Z,17.32
2022-09-10T21:36:32.700Z,17.20
2022-09-10T21:39:03.010Z,17.37
2022-09-10T21:41:39.886Z,17.14
2022-09-10T21:44:24.994Z,17.05
2022-09-10T21:46:52.902Z,16.99
2022-09-10T21:49:20.445Z,16.99
2022-09-10T21:51:47.586Z,17.11
2022-09-10T21:54:18.959Z,17.23
2022-09-10T21:56:46.897Z,17.16
2022-09-10T21:59:14.572Z,16.87
2022-09-10T22:01:44.126Z,16.80
2022-09-10T22:04:12.619Z,16.78
2022-09-10T22:06:40.847Z,16.84
2022-09-10T22:09:13.921Z,16.80
2022-09-10T22:11:45.855Z,16.89
2022-09-10T22:14:24.143Z,17.13
2022-09-10T22:16:52.316Z,16.92
2022-09-10T22:19:23.586Z,17.01
2022-09-10T22:21:53.894Z,17.01
2022-09-10T22:24:20.949Z,16.94
2022-09-10T22:26:48.327Z,16.78
2022-09-10T22:29:18.509Z,16.94
2022-09-10T22:31:46.540Z,16.92
2022-09-10T22:34:16.379Z,16.85
2022-09-10T22:36:45.248Z,16.73
2022-09-10T22:39:14.571Z,16.88
2022-09-10T22:41:43.003Z,16.77
2022-09-10T22:44:10.519Z,16.66
2022-09-10T22:46:38.443Z,16.69
2022-09-10T22:49:06.228Z,16.85
2022-09-10T22:51:38.083Z,16.75
2022-09-10T22:54:05.973Z,16.79
2022-09-10T22:56:35.745Z,16.91
2022-09-10T22:59:04.499Z,16.94
2022-09-10T23:01:36.523Z,17.08
2022-09-10T23:04:06.203Z,17.00
2022-09-10T23:06:36.458Z,17.00
2022-09-10T23:09:09.269Z,16.94
2022-09-10T23:11:37.661Z,16.95
2022-09-10T23:14:13.108Z,16.95
2022-09-10T23:16:48.320Z,16.95
2022-09-10T23:19:22.667Z,17.07
2022-09-10T23:21:53.181Z,17.07
2022-09-10T23:24:26.762Z,17.02
2022-09-10T23:26:54.166Z,16.95
2022-09-10T23:29:22.972Z,16.98
2022-09-10T23:31:52.871Z,17.15
2022-09-10T23:34:20.928Z,17.14
2022-09-10T23:36:49.128Z,17.29
2022-09-10T23:39:24.589Z,17.12
2022-09-10T23:41:56.891Z,17.03
2022-09-10T23:44:24.237Z,16.92
2022-09-10T23:46:51.455Z,17.03
2022-09-10T23:49:18.571Z,17.07
2022-09-10T23:51:45.685Z,16.93
2022-09-10T23:54:12.818Z,16.94
2022-09-10T23:56:40.136Z,16.91
2022-09-10T23:59:07.691Z,17.16
